createdAt,value
2019-04-26T00:00:54.982Z,17.46
2019-04-26T00:03:02.405Z,17.37
2019-04-26T00:05:07.812Z,17.27
2019-04-26T00:07:12.764Z,17.23
2019-04-26T00:09:38.606Z,17.21
2019-04-26T00:11:59.215Z,17.21
2019-04-26T00:14:31.172Z,17.21
2019-04-26T00:16:43.834Z,17.21
2019-04-26T00:18:47.892Z,17.14
2019-04-26T00:20:51.877Z,17.09
2019-04-26T00:22:55.806Z,17.03
2019-04-26T00:24:59.721Z,16.97
2019-04-26T00:27:03.636Z,16.89
2019-04-26T00:29:07.471Z,16.82
2019-04-26T00:31:12.869Z,16.78
2019-04-26T00:33:17.731Z,16.71
2019-04-26T00:35:22.635Z,16.68
2019-04-26T00:37:26.473Z,16.64
2019-04-26T00:39:30.267Z,16.57
2019-04-26T00:41:34.235Z,16.55
2019-04-26T00:43:38.644Z,16.56
2019-04-26T00:45:45.908Z,16.55
2019-04-26T00:47:51.760Z,16.50
2019-04-26T00:49:56.264Z,16.45
2019-04-26T00:52:00.494Z,16.41
2019-04-26T00:54:06.858Z,16.37
2019-04-26T00:56:12.396Z,16.32
2019-04-26T00:58:18.458Z,16.27
2019-04-26T01:00:23.731Z,16.22
2019-04-26T01:02:34.383Z,16.18
2019-04-26T01:04:38.195Z,16.14
2019-04-26T01:06:43.670Z,16.07
2019-04-26T01:08:47.419Z,16.03
2019-04-26T01:10:51.218Z,16.01
2019-04-26T01:12:55.027Z,15.97
2019-04-26T01:14:58.816Z,15.94
2019-04-26T01:17:03.541Z,15.89
2019-04-26T01:19:11.055Z,15.86
2019-04-26T01:21:19.170Z,15.85
2019-04-26T01:23:25.333Z,15.78
2019-04-26T01:25:46.137Z,15.71
2019-04-26T01:27:50.348Z,15.65
2019-04-26T01:29:57.382Z,15.54
2019-04-26T01:32:07.383Z,15.47
2019-04-26T01:34:11.538Z,15.42
2019-04-26T01:36:16.640Z,15.40
2019-04-26T01:38:21.812Z,15.36
2019-04-26T01:40:29.311Z,15.32
2019-04-26T01:43:08.062Z,15.31
2019-04-26T01:45:34.048Z,15.28
2019-04-26T01:47:39.020Z,15.20
2019-04-26T01:49:44.274Z,15.16
2019-04-26T01:52:03.028Z,15.13
2019-04-26T01:54:08.726Z,15.11
2019-04-26T01:56:13.321Z,15.09
2019-04-26T01:58:17.295Z,15.06
2019-04-26T02:00:41.567Z,15.04
2019-04-26T02:02:54.028Z,15.03
2019-04-26T02:05:00.503Z,15.02
2019-04-26T02:07:05.037Z,15.01
2019-04-26T02:09:11.442Z,15.02
2019-04-26T02:11:15.462Z,15.04
2019-04-26T02:13:20.522Z,15.01
2019-04-26T02:15:27.585Z,14.95
2019-04-26T02:17:33.596Z,14.89
2019-04-26T02:19:37.798Z,14.88
2019-04-26T02:21:52.935Z,14.83
2019-04-26T02:24:04.658Z,14.79
2019-04-26T02:26:27.034Z,14.74
2019-04-26T02:28:30.901Z,14.72
2019-04-26T02:30:36.718Z,14.71
2019-04-26T02:32:41.126Z,14.70
2019-04-26T02:34:46.180Z,14.63
2019-04-26T02:36:57.719Z,14.50
2019-04-26T02:38:59.696Z,14.39
2019-04-26T02:41:03.618Z,14.31
2019-04-26T02:43:09.547Z,14.26
2019-04-26T02:46:06.153Z,14.24
2019-04-26T02:48:21.689Z,14.30
2019-04-26T02:50:33.275Z,14.30
2019-04-26T02:52:47.270Z,14.31
2019-04-26T02:55:04.670Z,14.32
2019-04-26T02:57:08.851Z,14.32
2019-04-26T02:59:42.573Z,14.32
2019-04-26T03:01:48.417Z,14.30
2019-04-26T03:03:53.712Z,14.25
2019-04-26T03:05:58.757Z,14.18
2019-04-26T03:08:16.500Z,14.16
2019-04-26T03:10:24.614Z,14.16
2019-04-26T03:12:34.428Z,14.14
2019-04-26T03:15:13.463Z,14.11
2019-04-26T03:17:43.051Z,14.11
2019-04-26T03:19:57.314Z,14.05
2019-04-26T03:22:40.840Z,14.02
2019-04-26T03:24:56.242Z,13.95
2019-04-26T03:27:27.920Z,13.91
2019-04-26T03:29:43.758Z,13.88
2019-04-26T03:32:08.540Z,13.87
2019-04-26T03:34:53.131Z,13.83
2019-04-26T03:37:36.646Z,13.81
2019-04-26T03:39:56.465Z,13.73
2019-04-26T03:42:16.380Z,13.68
2019-04-26T03:44:33.051Z,13.66
2019-04-26T03:46:55.038Z,13.65
2019-04-26T03:49:44.183Z,13.61
2019-04-26T03:52:13.508Z,13.61
2019-04-26T03:54:21.701Z,13.57
2019-04-26T03:56:43.571Z,13.53
2019-04-26T03:59:30.266Z,13.53
2019-04-26T04:01:43.204Z,13.52
2019-04-26T04:03:56.644Z,13.49
2019-04-26T04:06:04.748Z,13.49
2019-04-26T04:08:13.011Z,13.48
2019-04-26T04:10:22.229Z,13.46
2019-04-26T04:12:44.479Z,13.45
2019-04-26T04:15:06.178Z,13.43
2019-04-26T04:17:27.468Z,13.41
2019-04-26T04:20:21.719Z,13.35
2019-04-26T04:22:29.168Z,13.31
2019-04-26T04:24:56.335Z,13.26
2019-04-26T04:27:11.324Z,13.23
2019-04-26T04:29:53.447Z,13.18
2019-04-26T04:31:57.058Z,13.17
2019-04-26T04:34:27.261Z,13.17
2019-04-26T04:36:42.190Z,13.17
2019-04-26T04:39:12.450Z,13.17
2019-04-26T04:41:27.881Z,13.17
2019-04-26T04:43:41.952Z,13.15
2019-04-26T04:46:33.379Z,13.16
2019-04-26T04:48:51.319Z,13.17
2019-04-26T04:51:09.869Z,13.16
2019-04-26T04:53:30.857Z,13.15
2019-04-26T04:55:52.110Z,13.12
2019-04-26T04:58:09.711Z,13.07
2019-04-26T05:00:51.763Z,13.03
2019-04-26T05:03:30.773Z,12.99
2019-04-26T05:06:10.744Z,12.95
2019-04-26T05:08:49.682Z,12.90
2019-04-26T05:11:06.934Z,12.92
2019-04-26T05:13:48.389Z,12.98
2019-04-26T05:16:16.838Z,13.03
2019-04-26T05:18:35.514Z,13.07
2019-04-26T05:21:12.329Z,13.10
2019-04-26T05:23:47.144Z,13.12
2019-04-26T05:26:30.445Z,13.15
2019-04-26T05:29:08.843Z,13.20
2019-04-26T05:31:59.911Z,13.25
2019-04-26T05:34:20.015Z,13.28
2019-04-26T05:36:47.765Z,13.32
2019-04-26T05:39:15.686Z,13.36
2019-04-26T05:41:59.936Z,13.40
2019-04-26T05:44:23.892Z,13.47
2019-04-26T05:47:26.271Z,13.49
2019-04-26T05:50:28.351Z,13.49
2019-04-26T05:53:27.198Z,13.49
2019-04-26T05:56:14.808Z,13.50
2019-04-26T05:58:44.481Z,13.51
2019-04-26T06:01:52.098Z,13.52
2019-04-26T06:04:46.709Z,13.52
2019-04-26T06:07:07.795Z,13.55
2019-04-26T06:09:50.356Z,13.61
2019-04-26T06:12:16.720Z,13.65
2019-04-26T06:14:48.932Z,13.65
2019-04-26T06:17:38.562Z,13.65
2019-04-26T06:20:05.465Z,13.69
2019-04-26T06:22:27.631Z,13.73
2019-04-26T06:25:10.365Z,13.74
2019-04-26T06:27:39.993Z,13.79
2019-04-26T06:29:56.798Z,13.92
2019-04-26T06:32:10.641Z,13.95
2019-04-26T06:34:34.507Z,13.93
2019-04-26T06:36:57.587Z,13.94
2019-04-26T06:39:30.196Z,13.95
2019-04-26T06:42:13.942Z,13.95
2019-04-26T06:44:23.545Z,13.93
2019-04-26T06:47:16.981Z,13.96
2019-04-26T06:50:15.053Z,14.01
2019-04-26T06:52:22.570Z,14.09
2019-04-26T06:54:40.791Z,14.14
2019-04-26T06:57:24.829Z,14.18
2019-04-26T06:59:59.183Z,14.19
2019-04-26T07:02:11.420Z,14.22
2019-04-26T07:04:26.404Z,14.24
2019-04-26T07:06:35.507Z,14.25
2019-04-26T07:08:57.722Z,14.29
2019-04-26T07:11:46.594Z,14.33
2019-04-26T07:14:36.750Z,14.38
2019-04-26T07:17:00.750Z,14.39
2019-04-26T07:19:21.397Z,14.44
2019-04-26T07:21:42.037Z,14.50
2019-04-26T07:24:36.244Z,14.48
2019-04-26T07:27:18.216Z,14.47
2019-04-26T07:29:57.557Z,14.46
2019-04-26T07:32:15.063Z,14.45
2019-04-26T07:34:43.315Z,14.46
2019-04-26T07:37:25.358Z,14.50
2019-04-26T07:39:52.979Z,14.54
2019-04-26T07:42:20.718Z,14.56
2019-04-26T07:44:41.023Z,14.58
2019-04-26T07:47:15.447Z,14.59
2019-04-26T07:49:52.118Z,14.65
2019-04-26T07:52:37.537Z,14.70
2019-04-26T07:55:20.982Z,14.80
2019-04-26T07:57:55.306Z,14.84
2019-04-26T08:00:18.991Z,14.85
2019-04-26T08:03:02.068Z,14.84
2019-04-26T08:05:17.891Z,14.87
2019-04-26T08:07:32.170Z,14.96
2019-04-26T08:09:39.011Z,14.99
2019-04-26T08:11:54.316Z,15.00
2019-04-26T08:14:12.624Z,14.99
2019-04-26T08:16:29.071Z,15.01
2019-04-26T08:18:40.758Z,15.04
2019-04-26T08:20:52.760Z,15.05
2019-04-26T08:23:02.739Z,15.07
2019-04-26T08:25:10.422Z,15.04
2019-04-26T08:27:23.694Z,15.05
2019-04-26T08:29:29.830Z,15.06
2019-04-26T08:31:37.730Z,15.05
2019-04-26T08:33:48.861Z,15.03
2019-04-26T08:35:56.373Z,15.02
2019-04-26T08:38:18.941Z,15.03
2019-04-26T08:40:26.535Z,14.98
2019-04-26T08:42:26.282Z,14.96
2019-04-26T08:44:59.737Z,14.94
2019-04-26T08:47:26.313Z,14.90
2019-04-26T08:50:04.118Z,14.84
2019-04-26T08:52:14.686Z,14.78
2019-04-26T08:54:22.330Z,14.74
2019-04-26T08:56:32.334Z,14.76
2019-04-26T08:58:40.238Z,14.75
2019-04-26T09:01:00.524Z,14.75
2019-04-26T09:03:15.265Z,14.76
2019-04-26T09:05:35.261Z,14.76
2019-04-26T09:07:42.578Z,14.75
2019-04-26T09:09:57.239Z,14.77
2019-04-26T09:11:59.841Z,14.77
2019-04-26T09:14:05.812Z,14.78
2019-04-26T09:16:16.025Z,14.80
2019-04-26T09:18:19.856Z,14.80
2019-04-26T09:20:29.524Z,14.79
2019-04-26T09:23:03.941Z,14.78
2019-04-26T09:25:18.864Z,14.79
2019-04-26T09:27:32.537Z,14.76
2019-04-26T09:29:49.043Z,14.77
2019-04-26T09:31:56.221Z,14.78
2019-04-26T09:34:06.361Z,14.79
2019-04-26T09:36:09.969Z,14.77
2019-04-26T09:38:13.754Z,14.72
2019-04-26T09:40:21.523Z,14.69
2019-04-26T09:42:46.982Z,14.68
2019-04-26T09:45:16.831Z,14.67
2019-04-26T09:47:47.906Z,14.65
2019-04-26T09:50:06.159Z,14.57
2019-04-26T09:52:16.027Z,14.55
2019-04-26T09:54:19.807Z,14.58
2019-04-26T09:56:23.615Z,14.59
2019-04-26T09:58:30.721Z,14.57
2019-04-26T10:00:34.141Z,14.55
2019-04-26T10:02:37.877Z,14.55
2019-04-26T10:04:41.684Z,14.50
2019-04-26T10:06:45.498Z,14.49
2019-04-26T10:08:52.424Z,14.49
2019-04-26T10:10:55.896Z,14.49
2019-04-26T10:13:06.063Z,14.49
2019-04-26T10:15:22.531Z,14.49
2019-04-26T10:17:32.189Z,14.50
2019-04-26T10:19:55.547Z,14.49
2019-04-26T10:22:01.130Z,14.44
2019-04-26T10:24:08.487Z,14.38
2019-04-26T10:26:12.454Z,14.34
2019-04-26T10:28:17.111Z,14.31
2019-04-26T10:30:22.049Z,14.30
2019-04-26T10:32:27.931Z,14.27
2019-04-26T10:34:31.746Z,14.28
2019-04-26T10:36:35.571Z,14.27
2019-04-26T10:38:39.364Z,14.25
2019-04-26T10:40:44.084Z,14.23
2019-04-26T10:42:47.923Z,14.23
2019-04-26T10:44:51.768Z,14.26
2019-04-26T10:46:55.983Z,14.27
2019-04-26T10:49:08.560Z,14.24
2019-04-26T10:51:07.269Z,14.23
2019-04-26T10:53:19.665Z,14.25
2019-04-26T10:55:38.249Z,14.17
2019-04-26T10:57:44.686Z,14.14
2019-04-26T10:59:59.403Z,14.12
2019-04-26T11:02:05.201Z,14.12
2019-04-26T11:04:09.955Z,14.09
2019-04-26T11:06:14.747Z,14.09
2019-04-26T11:08:18.488Z,14.09
2019-04-26T11:10:24.458Z,14.10
2019-04-26T11:12:28.485Z,14.06
2019-04-26T11:14:32.238Z,14.06
2019-04-26T11:16:41.261Z,14.05
2019-04-26T11:18:44.991Z,13.99
2019-04-26T11:20:49.788Z,13.95
2019-04-26T11:22:53.839Z,13.92
2019-04-26T11:24:57.679Z,13.90
2019-04-26T11:27:01.556Z,13.90
2019-04-26T11:29:07.384Z,13.92
2019-04-26T11:31:11.238Z,13.89
2019-04-26T11:33:14.984Z,13.91
2019-04-26T11:35:18.877Z,13.88
2019-04-26T11:37:23.711Z,13.89
2019-04-26T11:39:28.232Z,13.91
2019-04-26T11:41:34.037Z,13.93
2019-04-26T11:43:38.572Z,13.95
2019-04-26T11:45:45.384Z,13.99
2019-04-26T11:47:56.024Z,14.02
2019-04-26T11:49:55.276Z,14.02
2019-04-26T11:52:02.920Z,14.01
2019-04-26T11:54:05.753Z,14.04
2019-04-26T11:56:09.639Z,14.07
2019-04-26T11:58:13.415Z,14.06
2019-04-26T12:00:27.900Z,14.06
2019-04-26T12:02:36.705Z,14.05
2019-04-26T12:04:59.580Z,14.05
2019-04-26T12:07:25.384Z,14.10
2019-04-26T12:09:37.130Z,14.16
2019-04-26T12:11:49.375Z,14.19
2019-04-26T12:13:46.622Z,14.20
2019-04-26T12:15:50.398Z,14.19
2019-04-26T12:17:58.675Z,14.16
2019-04-26T12:20:00.738Z,14.11
2019-04-26T12:22:08.464Z,14.11
2019-04-26T12:24:10.224Z,14.09
2019-04-26T12:26:17.457Z,14.09
2019-04-26T12:28:19.571Z,14.10
2019-04-26T12:30:26.587Z,14.05
2019-04-26T12:32:28.919Z,14.04
2019-04-26T12:34:33.748Z,14.04
2019-04-26T12:36:37.464Z,14.04
2019-04-26T12:38:41.243Z,14.04
2019-04-26T12:40:46.113Z,14.05
2019-04-26T12:42:50.573Z,14.04
2019-04-26T12:45:02.107Z,13.98
2019-04-26T12:47:19.476Z,13.97
2019-04-26T12:49:24.233Z,13.93
2019-04-26T12:51:28.914Z,13.87
2019-04-26T12:53:33.001Z,13.83
2019-04-26T12:55:37.846Z,13.78
2019-04-26T12:57:42.442Z,13.77
2019-04-26T12:59:46.311Z,13.73
2019-04-26T13:01:51.177Z,13.69
2019-04-26T13:04:06.860Z,13.67
2019-04-26T13:06:10.759Z,13.66
2019-04-26T13:08:16.906Z,13.62
2019-04-26T13:10:46.916Z,13.60
2019-04-26T13:13:15.593Z,13.60
2019-04-26T13:16:21.537Z,13.62
2019-04-26T13:18:23.395Z,13.64
2019-04-26T13:20:30.210Z,13.62
2019-04-26T13:22:45.367Z,13.59
2019-04-26T13:24:40.844Z,13.54
2019-04-26T13:26:44.768Z,13.49
2019-04-26T13:28:52.457Z,13.42
2019-04-26T13:30:55.142Z,13.38
2019-04-26T13:32:59.959Z,13.37
2019-04-26T13:35:07.120Z,13.35
2019-04-26T13:37:09.479Z,13.35
2019-04-26T13:39:17.314Z,13.33
2019-04-26T13:41:18.933Z,13.27
2019-04-26T13:43:26.911Z,13.25
2019-04-26T13:45:49.913Z,13.25
2019-04-26T13:48:15.895Z,13.24
2019-04-26T13:50:29.287Z,13.20
2019-04-26T13:52:34.089Z,13.17
2019-04-26T13:54:38.974Z,13.16
2019-04-26T13:56:42.809Z,13.11
2019-04-26T13:58:46.613Z,13.08
2019-04-26T14:00:50.432Z,13.08
2019-04-26T14:02:54.213Z,13.04
2019-04-26T14:04:58.938Z,12.98
2019-04-26T14:07:02.769Z,12.92
2019-04-26T14:09:08.737Z,12.90
2019-04-26T14:11:12.532Z,12.89
2019-04-26T14:13:16.303Z,12.88
2019-04-26T14:15:20.190Z,12.83
2019-04-26T14:17:26.026Z,12.75
2019-04-26T14:19:31.533Z,12.70
2019-04-26T14:21:35.311Z,12.64
2019-04-26T14:24:05.175Z,12.58
2019-04-26T14:26:12.234Z,12.53
2019-04-26T14:28:20.386Z,12.46
2019-04-26T14:30:22.572Z,12.42
2019-04-26T14:32:27.320Z,12.36
2019-04-26T14:34:31.111Z,12.31
2019-04-26T14:36:34.915Z,12.29
2019-04-26T14:38:40.083Z,12.23
2019-04-26T14:40:45.557Z,12.21
2019-04-26T14:42:49.540Z,12.16
2019-04-26T14:44:54.232Z,12.09
2019-04-26T14:46:59.041Z,12.03
2019-04-26T14:49:05.694Z,11.97
2019-04-26T14:51:12.094Z,11.92
2019-04-26T14:53:14.041Z,11.88
2019-04-26T14:55:21.297Z,11.85
2019-04-26T14:57:28.981Z,11.79
2019-04-26T14:59:46.955Z,11.73
2019-04-26T15:01:59.161Z,11.67
2019-04-26T15:04:20.950Z,11.65
2019-04-26T15:06:28.796Z,11.66
2019-04-26T15:08:34.120Z,11.68
2019-04-26T15:10:45.821Z,11.69
2019-04-26T15:12:46.957Z,11.67
2019-04-26T15:14:53.785Z,11.69
2019-04-26T15:16:55.745Z,11.69
2019-04-26T15:18:59.483Z,11.69
2019-04-26T15:21:05.391Z,11.69
2019-04-26T15:23:13.131Z,11.71
2019-04-26T15:25:16.728Z,11.74
2019-04-26T15:27:20.519Z,11.77
2019-04-26T15:29:27.027Z,11.81
2019-04-26T15:31:29.879Z,11.84
2019-04-26T15:33:36.047Z,11.87
2019-04-26T15:35:40.033Z,11.90
2019-04-26T15:37:44.766Z,11.93
2019-04-26T15:40:08.520Z,11.96
2019-04-26T15:42:29.220Z,11.98
2019-04-26T15:44:41.363Z,12.00
2019-04-26T15:47:08.091Z,12.04
2019-04-26T15:49:37.387Z,12.04
2019-04-26T15:51:42.674Z,12.05
2019-04-26T15:53:48.749Z,12.05
2019-04-26T15:55:52.497Z,12.06
2019-04-26T15:57:56.276Z,12.09
2019-04-26T16:00:03.995Z,12.09
2019-04-26T16:02:07.706Z,12.10
2019-04-26T16:04:17.366Z,12.10
2019-04-26T16:06:25.935Z,12.09
2019-04-26T16:08:33.899Z,12.07
2019-04-26T16:10:38.379Z,12.05
2019-04-26T16:12:42.247Z,12.04
2019-04-26T16:14:46.153Z,12.02
2019-04-26T16:16:52.450Z,11.97
2019-04-26T16:18:57.296Z,11.94
2019-04-26T16:21:01.970Z,11.94
2019-04-26T16:23:08.853Z,11.95
2019-04-26T16:25:13.937Z,11.93
2019-04-26T16:27:17.679Z,11.92
2019-04-26T16:29:33.301Z,11.92
2019-04-26T16:31:48.350Z,11.92
2019-04-26T16:33:54.885Z,11.92
2019-04-26T16:36:02.702Z,11.94
2019-04-26T16:38:23.088Z,11.95
2019-04-26T16:40:26.894Z,11.96
2019-04-26T16:42:31.708Z,11.97
2019-04-26T16:44:35.512Z,12.00
2019-04-26T16:46:39.340Z,12.02
2019-04-26T16:48:44.508Z,12.05
2019-04-26T16:50:48.378Z,12.06
2019-04-26T16:52:52.168Z,12.10
2019-04-26T16:55:02.469Z,12.14
2019-04-26T16:57:06.545Z,12.17
2019-04-26T16:59:07.041Z,12.20
2019-04-26T17:01:14.949Z,12.21
2019-04-26T17:03:18.358Z,12.19
2019-04-26T17:05:44.005Z,12.18
2019-04-26T17:07:29.715Z,12.16
2019-04-26T17:09:54.799Z,12.14
2019-04-26T17:11:41.403Z,12.10
2019-04-26T17:13:50.569Z,12.09
2019-04-26T17:15:51.965Z,12.10
2019-04-26T17:17:56.734Z,12.10
2019-04-26T17:20:02.493Z,12.10
2019-04-26T17:22:40.031Z,12.10
2019-04-26T17:24:53.386Z,12.12
2019-04-26T17:27:00.419Z,12.12
2019-04-26T17:29:06.312Z,12.09
2019-04-26T17:31:10.143Z,12.10
2019-04-26T17:33:13.929Z,12.09
2019-04-26T17:35:17.749Z,12.11
2019-04-26T17:37:25.775Z,12.09
2019-04-26T17:39:27.113Z,12.06
2019-04-26T17:41:33.272Z,12.05
2019-04-26T17:43:42.300Z,12.05
2019-04-26T17:45:44.194Z,12.03
2019-04-26T17:47:50.685Z,12.03
2019-04-26T17:49:57.459Z,12.03
2019-04-26T17:52:01.900Z,12.04
2019-04-26T17:54:33.834Z,12.02
2019-04-26T17:56:13.405Z,12.01
2019-04-26T17:58:29.109Z,12.02
2019-04-26T18:00:27.012Z,12.01
2019-04-26T18:02:41.228Z,11.99
2019-04-26T18:04:40.512Z,11.97
2019-04-26T18:06:46.909Z,11.96
2019-04-26T18:08:52.805Z,11.95
2019-04-26T18:10:55.690Z,11.94
2019-04-26T18:13:00.461Z,11.92
2019-04-26T18:15:09.379Z,11.92
2019-04-26T18:17:19.210Z,11.91
2019-04-26T18:19:35.798Z,11.90
2019-04-26T18:21:59.911Z,11.86
2019-04-26T18:24:02.950Z,11.84
2019-04-26T18:26:06.753Z,11.82
2019-04-26T18:28:13.249Z,11.79
2019-04-26T18:30:16.440Z,11.76
2019-04-26T18:32:21.525Z,11.74
2019-04-26T18:34:25.827Z,11.73
2019-04-26T18:36:31.979Z,11.74
2019-04-26T18:38:35.223Z,11.73
2019-04-26T18:40:57.150Z,11.74
2019-04-26T18:42:44.448Z,11.75
2019-04-26T18:44:48.943Z,11.76
2019-04-26T18:47:04.479Z,11.78
2019-04-26T18:49:11.339Z,11.81
2019-04-26T18:51:14.810Z,11.83
2019-04-26T18:53:48.094Z,11.85
2019-04-26T18:55:53.942Z,11.86
2019-04-26T18:58:01.668Z,11.87
2019-04-26T19:00:06.751Z,11.87
2019-04-26T19:02:11.388Z,11.87
2019-04-26T19:04:16.136Z,11.89
2019-04-26T19:06:29.788Z,11.90
2019-04-26T19:08:27.171Z,11.91
2019-04-26T19:10:34.158Z,11.91
2019-04-26T19:12:37.615Z,11.92
2019-04-26T19:15:07.167Z,11.94
2019-04-26T19:17:40.983Z,11.96
2019-04-26T19:19:57.161Z,11.97
2019-04-26T19:22:03.408Z,11.94
2019-04-26T19:24:11.934Z,11.92
2019-04-26T19:26:13.653Z,11.93
2019-04-26T19:28:18.050Z,11.93
2019-04-26T19:30:22.259Z,11.95
2019-04-26T19:32:26.203Z,11.95
2019-04-26T19:34:30.380Z,11.95
2019-04-26T19:36:35.031Z,11.96
2019-04-26T19:38:38.881Z,11.96
2019-04-26T19:40:46.370Z,11.98
2019-04-26T19:42:51.998Z,11.96
2019-04-26T19:45:09.519Z,11.96
2019-04-26T19:47:09.237Z,11.97
2019-04-26T19:49:36.782Z,11.98
2019-04-26T19:52:00.524Z,11.99
2019-04-26T19:54:23.235Z,11.97
2019-04-26T19:56:42.443Z,11.94
2019-04-26T19:58:50.703Z,11.89
2019-04-26T20:00:53.097Z,11.87
2019-04-26T20:02:56.872Z,11.84
2019-04-26T20:05:02.445Z,11.81
2019-04-26T20:07:06.366Z,11.78
2019-04-26T20:09:11.885Z,11.77
2019-04-26T20:11:18.709Z,11.75
2019-04-26T20:13:22.519Z,11.74
2019-04-26T20:15:28.645Z,11.74
2019-04-26T20:17:31.805Z,11.73
2019-04-26T20:19:37.573Z,11.73
2019-04-26T20:21:41.458Z,11.71
2019-04-26T20:23:47.436Z,11.72
2019-04-26T20:25:53.080Z,11.71
2019-04-26T20:27:59.785Z,11.70
2019-04-26T20:30:03.449Z,11.71
2019-04-26T20:32:26.317Z,11.73
2019-04-26T20:34:32.126Z,11.72
2019-04-26T20:36:40.641Z,11.71
2019-04-26T20:38:45.728Z,11.70
2019-04-26T20:40:47.672Z,11.69
2019-04-26T20:42:57.291Z,11.66
2019-04-26T20:44:58.117Z,11.65
2019-04-26T20:47:03.401Z,11.60
2019-04-26T20:49:09.077Z,11.55
2019-04-26T20:51:12.774Z,11.53
2019-04-26T20:53:16.595Z,11.52
2019-04-26T20:55:25.257Z,11.51
2019-04-26T20:57:30.468Z,11.53
2019-04-26T20:59:39.363Z,11.56
2019-04-26T21:01:46.460Z,11.57
2019-04-26T21:03:48.806Z,11.58
2019-04-26T21:05:58.856Z,11.59
2019-04-26T21:07:58.242Z,11.58
2019-04-26T21:10:02.159Z,11.56
2019-04-26T21:12:07.437Z,11.55
2019-04-26T21:14:12.327Z,11.52
2019-04-26T21:16:16.327Z,11.53
2019-04-26T21:18:21.136Z,11.54
2019-04-26T21:20:27.652Z,11.53
2019-04-26T21:22:32.271Z,11.53
2019-04-26T21:24:38.451Z,11.48
2019-04-26T21:27:02.743Z,11.43
2019-04-26T21:29:24.132Z,11.40
2019-04-26T21:31:32.772Z,11.37
2019-04-26T21:33:47.629Z,11.35
2019-04-26T21:36:10.343Z,11.35
2019-04-26T21:38:29.727Z,11.39
2019-04-26T21:40:34.970Z,11.39
2019-04-26T21:42:38.790Z,11.38
2019-04-26T21:44:44.706Z,11.40
2019-04-26T21:46:49.689Z,11.42
2019-04-26T21:48:53.679Z,11.43
2019-04-26T21:50:57.445Z,11.44
2019-04-26T21:53:04.388Z,11.43
2019-04-26T21:55:07.092Z,11.43
2019-04-26T21:57:11.180Z,11.40
2019-04-26T21:59:14.921Z,11.39
2019-04-26T22:01:24.837Z,11.39
2019-04-26T22:03:29.038Z,11.38
2019-04-26T22:05:35.271Z,11.37
2019-04-26T22:07:43.766Z,11.35
2019-04-26T22:10:05.139Z,11.31
2019-04-26T22:12:13.154Z,11.30
2019-04-26T22:14:23.532Z,11.27
2019-04-26T22:16:42.678Z,11.27
2019-04-26T22:18:58.037Z,11.26
2019-04-26T22:21:10.579Z,11.26
2019-04-26T22:23:36.409Z,11.26
2019-04-26T22:25:46.651Z,11.26
2019-04-26T22:27:54.024Z,11.26
2019-04-26T22:29:56.058Z,11.25
2019-04-26T22:31:59.892Z,11.27
2019-04-26T22:34:07.349Z,11.25
2019-04-26T22:36:09.467Z,11.27
2019-04-26T22:38:13.246Z,11.29
2019-04-26T22:40:19.680Z,11.29
2019-04-26T22:42:23.986Z,11.27
2019-04-26T22:44:50.285Z,11.27
2019-04-26T22:47:14.765Z,11.27
2019-04-26T22:49:19.659Z,11.26
2019-04-26T22:51:24.500Z,11.24
2019-04-26T22:53:28.311Z,11.23
2019-04-26T22:55:33.439Z,11.23
2019-04-26T22:57:37.299Z,11.25
2019-04-26T22:59:45.615Z,11.23
2019-04-26T23:01:48.853Z,11.20
2019-04-26T23:03:53.242Z,11.21
2019-04-26T23:05:59.188Z,11.21
2019-04-26T23:08:03.397Z,11.18
2019-04-26T23:10:09.406Z,11.17
2019-04-26T23:12:30.957Z,11.16
2019-04-26T23:14:48.253Z,11.15
2019-04-26T23:17:17.448Z,11.14
2019-04-26T23:19:33.528Z,11.11
2019-04-26T23:21:45.498Z,11.09
2019-04-26T23:23:45.806Z,11.07
2019-04-26T23:25:50.563Z,11.05
2019-04-26T23:27:58.251Z,11.05
2019-04-26T23:30:00.916Z,11.04
2019-04-26T23:32:05.805Z,11.03
2019-04-26T23:34:09.543Z,11.04
2019-04-26T23:36:13.734Z,11.07
2019-04-26T23:38:17.465Z,11.08
2019-04-26T23:40:25.674Z,11.11
2019-04-26T23:42:27.998Z,11.11
2019-04-26T23:44:33.119Z,11.13
2019-04-26T23:46:37.080Z,11.14
2019-04-26T23:48:42.729Z,11.15
2019-04-26T23:50:47.464Z,11.16
2019-04-26T23:52:52.952Z,11.15
2019-04-26T23:54:57.807Z,11.16
2019-04-26T23:57:02.885Z,11.16
2019-04-26T23:59:06.644Z,11.14
